.
WxDataArchive / Data Records for 2010-06-30
2010-06-29 June 2010 2010-07-01

Data Records for Wednesday, 30 June 2010

Time	Temp	Chill	HIndex	Humid	Dewpt	 Wind 	HiWind	WindDir	Rain 	Barom 
-----	----	-----	------	-----	-----	------	------	-------	-----	----- 
00:00	59.6	59.6	59.6	66	48.2	0	0	---	0.00	30.151 
00:05	59.5	59.5	59.5	66	48.1	0	1	292	0.00	30.151 
00:10	59.3	59.3	59.3	66	47.9	0	0	---	0.00	30.151 
00:15	59.2	59.2	59.2	67	48.2	0	0	---	0.00	30.152 
00:20	59.0	59.0	59.0	67	48.1	0	0	---	0.00	30.152 
00:25	58.9	58.9	58.9	67	48.0	0	1	292	0.00	30.152 
00:30	58.7	58.7	58.7	68	48.2	0	1	292	0.00	30.156 
00:35	58.6	58.6	58.6	67	47.7	0	1	292	0.00	30.156 
00:40	58.4	58.4	58.4	67	47.5	0	0	---	0.00	30.156 
00:45	58.1	58.1	58.1	67	47.2	0	0	---	0.00	30.163 
00:50	58.0	58.0	58.0	67	47.1	0	0	---	0.00	30.163 
00:55	58.0	58.0	58.0	68	47.5	0	1	292	0.00	30.163 
01:00	57.8	57.8	57.8	68	47.3	0	1	292	0.00	30.165 
01:05	57.6	57.6	57.6	68	47.1	0	0	---	0.00	30.165 
01:10	57.5	57.5	57.5	69	47.4	0	1	292	0.00	30.165 
01:15	57.3	57.3	57.3	69	47.2	0	0	---	0.00	30.165 
01:20	57.2	57.2	57.2	69	47.1	0	0	---	0.00	30.165 
01:25	57.2	57.2	57.2	70	47.5	0	0	---	0.00	30.165 
01:30	56.9	56.9	56.9	70	47.2	0	0	---	0.00	30.168 
01:35	56.7	56.7	56.7	71	47.4	0	0	---	0.00	30.168 
01:40	56.6	56.6	56.6	71	47.3	0	0	---	0.00	30.168 
01:45	56.5	56.5	56.5	72	47.6	0	0	---	0.00	30.170 
01:50	56.5	56.5	56.5	73	47.9	0	0	---	0.00	30.170 
01:55	56.3	56.3	56.3	72	47.4	0	0	---	0.00	30.170 
02:00	56.3	56.3	56.3	73	47.8	0	0	---	0.00	30.171 
02:05	56.2	56.2	56.2	73	47.7	0	1	292	0.00	30.171 
02:10	56.0	56.0	56.0	73	47.5	0	0	---	0.00	30.171 
02:15	55.9	55.9	55.9	74	47.7	0	0	---	0.00	30.170 
02:20	55.7	55.7	55.7	75	47.9	0	0	---	0.00	30.170 
02:25	55.6	55.6	55.6	75	47.8	0	0	---	0.00	30.170 
02:30	55.4	55.4	55.4	75	47.6	0	0	---	0.00	30.172 
02:35	55.4	55.4	55.4	75	47.6	0	0	---	0.00	30.172 
02:40	55.3	55.3	55.3	76	47.9	0	0	---	0.00	30.172 
02:45	55.0	55.0	55.0	76	47.6	0	0	---	0.00	30.172 
02:50	54.8	54.8	54.8	77	47.7	0	0	---	0.00	30.172 
02:55	54.7	54.7	54.7	77	47.6	0	0	---	0.00	30.172 
03:00	54.5	54.5	54.5	78	47.8	0	0	---	0.00	30.175 
03:05	54.5	54.5	54.5	77	47.4	0	0	---	0.00	30.175 
03:10	54.4	54.4	54.4	78	47.7	0	0	---	0.00	30.175 
03:15	54.4	54.4	54.4	78	47.7	0	0	---	0.00	30.175 
03:20	54.2	54.2	54.2	79	47.8	0	0	---	0.00	30.175 
03:25	54.2	54.2	54.2	79	47.8	0	0	---	0.00	30.175 
03:30	54.2	54.2	54.2	80	48.2	0	0	---	0.00	30.175 
03:35	54.2	54.2	54.2	80	48.2	0	0	---	0.00	30.175 
03:40	54.2	54.2	54.2	79	47.8	0	0	---	0.00	30.175 
03:45	54.2	54.2	54.2	80	48.2	0	0	---	0.00	30.177 
03:50	54.1	54.1	54.1	80	48.1	0	0	---	0.00	30.177 
03:55	54.1	54.1	54.1	80	48.1	0	0	---	0.00	30.177 
04:00	53.9	53.9	53.9	80	47.9	0	0	---	0.00	30.179 
04:05	53.8	53.8	53.8	80	47.8	0	0	---	0.00	30.179 
04:10	53.6	53.6	53.6	81	47.9	0	0	---	0.00	30.179 
04:15	53.5	53.5	53.5	81	47.8	0	0	---	0.00	30.177 
04:20	53.3	53.3	53.3	81	47.6	0	0	---	0.00	30.177 
04:25	53.2	53.2	53.2	81	47.5	0	0	---	0.00	30.177 
04:30	53.1	53.1	53.1	81	47.4	0	0	---	0.00	30.179 
04:35	52.9	52.9	52.9	81	47.2	0	0	---	0.00	30.179 
04:40	52.9	52.9	52.9	81	47.2	0	0	---	0.00	30.179 
04:45	52.8	52.8	52.8	81	47.1	0	0	---	0.00	30.185 
04:50	52.8	52.8	52.8	81	47.1	0	0	---	0.00	30.185 
04:55	52.6	52.6	52.6	81	46.9	0	0	---	0.00	30.185 
05:00	52.6	52.6	52.6	81	46.9	0	0	---	0.00	30.187 
05:05	52.5	52.5	52.5	81	46.8	0	0	---	0.00	30.187 
05:10	52.5	52.5	52.5	81	46.8	0	0	---	0.00	30.187 
05:15	52.3	52.3	52.3	82	47.0	0	0	---	0.00	30.189 
05:20	52.2	52.2	52.2	82	46.9	0	0	---	0.00	30.189 
05:25	52.0	52.0	52.0	82	46.7	0	0	---	0.00	30.189 
05:30	51.9	51.9	51.9	83	46.9	0	0	---	0.00	30.198 
05:35	51.7	51.7	51.7	83	46.7	0	0	---	0.00	30.198 
05:40	51.6	51.6	51.6	84	46.9	0	0	---	0.00	30.198 
05:45	51.3	51.3	51.3	84	46.6	0	0	---	0.00	30.205 
05:50	51.1	51.1	51.1	85	46.7	0	0	---	0.00	30.205 
05:55	51.0	51.0	51.0	86	47.0	0	0	---	0.00	30.205 
06:00	50.8	50.8	50.8	86	46.8	0	0	---	0.00	30.212 
06:05	50.7	50.7	50.7	87	47.0	0	0	---	0.00	30.212 
06:10	50.5	50.5	50.5	87	46.8	0	0	---	0.00	30.212 
06:15	50.4	50.4	50.4	88	47.0	0	0	---	0.00	30.210 
06:20	50.4	50.4	50.4	88	47.0	0	0	---	0.00	30.210 
06:25	50.2	50.2	50.2	88	46.8	0	0	---	0.00	30.210 
06:30	50.2	50.2	50.2	89	47.1	0	0	---	0.00	30.214 
06:35	50.1	50.1	50.1	89	47.0	0	0	---	0.00	30.214 
06:40	50.1	50.1	50.1	90	47.3	0	0	---	0.00	30.214 
06:45	50.1	50.1	50.1	90	47.3	0	0	---	0.00	30.213 
06:50	50.2	50.2	50.2	91	47.7	0	0	---	0.00	30.213 
06:55	50.4	50.4	50.4	91	47.9	0	0	---	0.00	30.213 
07:00	50.5	50.5	50.5	91	48.0	0	0	---	0.00	30.222 
07:05	50.8	50.8	50.8	91	48.3	0	0	---	0.00	30.222 
07:10	51.0	51.0	51.0	91	48.5	0	0	---	0.00	30.222 
07:15	51.3	51.3	51.3	91	48.8	0	0	---	0.00	30.222 
07:20	51.7	51.7	51.7	91	49.2	0	0	---	0.00	30.222 
07:25	52.2	52.2	52.2	91	49.7	0	0	---	0.00	30.222 
07:30	52.8	52.8	52.8	90	49.9	0	0	---	0.00	30.230 
07:35	53.3	53.3	53.3	88	49.8	0	0	---	0.00	30.230 
07:40	54.1	54.1	54.1	86	50.0	0	1	292	0.00	30.230 
07:45	55.1	55.1	55.1	82	49.7	0	2	202	0.00	30.235 
07:50	56.0	56.0	56.0	78	49.2	0	2	202	0.00	30.235 
07:55	57.0	57.0	57.0	73	48.4	0	2	202	0.00	30.235 
08:00	58.0	58.0	58.0	72	49.0	0	1	180	0.00	30.233 
08:05	58.9	58.9	58.9	69	48.7	0	2	180	0.00	30.233 
08:10	59.6	59.6	59.6	65	47.8	0	2	135	0.00	30.233 
08:15	60.2	60.2	60.2	63	47.6	0	3	135	0.00	30.241 
08:20	60.7	60.7	60.7	63	48.0	0	3	135	0.00	30.241 
08:25	61.2	61.2	61.2	62	48.1	1	4	90	0.00	30.241 
08:30	61.6	61.6	61.6	61	48.0	0	3	90	0.00	30.248 
08:35	61.8	61.8	61.8	58	46.9	1	6	112	0.00	30.248 
08:40	61.6	61.6	61.6	60	47.6	1	5	112	0.00	30.248 
08:45	61.8	61.8	61.8	58	46.9	1	4	112	0.00	30.252 
08:50	62.1	62.1	62.1	58	47.1	0	2	112	0.00	30.252 
08:55	62.6	62.6	62.6	57	47.1	1	3	112	0.00	30.252 
09:00	63.1	63.1	63.1	57	47.6	0	2	90	0.00	30.257 
09:05	63.9	63.9	63.9	55	47.4	0	2	90	0.00	30.257 
09:10	64.5	64.5	64.5	50	45.4	1	4	90	0.00	30.257 
09:15	64.8	64.8	64.8	54	47.8	1	3	135	0.00	30.259 
09:20	64.8	64.8	64.8	50	45.7	2	4	112	0.00	30.259 
09:25	64.5	64.5	64.5	49	44.9	2	5	112	0.00	30.259 
09:30	64.7	64.7	64.7	47	44.0	2	4	112	0.00	30.262 
09:35	65.0	65.0	65.0	48	44.8	1	4	68	0.00	30.262 
09:40	65.3	65.3	65.3	46	44.0	1	3	68	0.00	30.262 
09:45	65.8	65.8	65.8	47	45.0	1	3	112	0.00	30.264 
09:50	66.1	66.1	66.1	46	44.7	1	4	112	0.00	30.264 
09:55	66.4	66.4	66.4	47	45.5	1	4	112	0.00	30.264 
10:00	66.4	66.4	66.4	46	45.0	2	5	112	0.00	30.264 
10:05	66.4	66.4	66.4	47	45.5	2	6	90	0.00	30.264 
10:10	67.1	67.1	67.1	46	45.6	0	2	90	0.00	30.264 
10:15	67.8	67.8	67.8	45	45.7	0	1	90	0.00	30.266 
10:20	68.1	68.1	68.1	45	45.9	0	3	90	0.00	30.266 
10:25	68.3	68.3	68.3	42	44.3	1	6	90	0.00	30.266 
10:30	68.1	68.1	68.1	41	43.5	0	3	90	0.00	30.266 
10:35	68.4	68.4	68.4	43	45.0	1	4	90	0.00	30.266 
10:40	68.6	68.6	68.6	43	45.2	1	3	90	0.00	30.266 
10:45	68.9	68.9	68.9	41	44.2	1	4	90	0.00	30.272 
10:50	69.1	69.1	69.1	46	47.4	0	2	90	0.00	30.272 
10:55	69.3	69.3	69.3	44	46.4	1	3	90	0.00	30.272 
11:00	69.6	69.6	69.6	40	44.2	1	4	90	0.00	30.269 
11:05	69.4	69.4	69.4	43	45.9	1	3	90	0.00	30.269 
11:10	69.9	69.9	69.9	41	45.1	1	4	112	0.00	30.269 
11:15	70.4	70.4	70.4	42	46.2	1	4	112	0.00	30.267 
11:20	70.6	70.6	70.6	46	48.8	0	2	112	0.00	30.267 
11:25	70.3	70.3	70.3	45	47.9	0	2	112	0.00	30.267 
11:30	70.4	70.4	70.4	46	48.6	1	4	112	0.00	30.266 
11:35	70.4	70.4	70.4	42	46.2	1	3	112	0.00	30.266 
11:40	70.3	70.3	70.3	43	46.7	0	1	112	0.00	30.266 
11:45	70.6	70.6	70.6	41	45.7	0	1	112	0.00	30.265 
11:50	70.1	70.1	70.1	37	42.6	0	1	112	0.00	30.265 
11:55	69.4	69.4	69.4	43	45.9	0	2	22	0.00	30.265 
12:00	70.1	70.1	70.1	41	45.3	0	2	22	0.00	30.263 
12:05	70.8	70.8	70.8	43	47.2	1	6	112	0.00	30.263 
12:10	71.1	71.1	71.1	42	46.8	0	2	112	0.00	30.263 
12:15	71.8	71.8	71.8	46	49.9	1	3	112	0.00	30.263 
12:20	71.5	71.5	71.5	42	47.2	1	3	315	0.00	30.263 
12:25	71.5	71.5	71.5	42	47.2	0	2	315	0.00	30.263 
12:30	71.8	71.8	71.8	43	48.1	1	4	90	0.00	30.259 
12:35	71.6	71.6	71.6	46	49.7	1	3	248	0.00	30.259 
12:40	72.0	72.0	72.0	47	50.7	0	3	112	0.00	30.259 
12:45	72.3	72.3	72.3	40	46.6	1	3	112	0.00	30.260 
12:50	72.5	72.5	72.5	40	46.8	0	3	112	0.00	30.260 
12:55	72.7	72.7	72.7	45	50.1	0	4	112	0.00	30.260 
13:00	72.5	72.5	72.5	43	48.7	0	2	112	0.00	30.261 
13:05	71.8	71.8	71.8	40	46.2	1	2	338	0.00	30.261 
13:10	71.8	71.8	71.8	45	49.3	0	2	0	0.00	30.261 
13:15	72.3	72.3	72.3	43	48.5	0	2	315	0.00	30.263 
13:20	72.1	72.1	72.1	40	46.4	1	3	315	0.00	30.263 
13:25	72.0	72.0	72.0	43	48.3	1	4	270	0.00	30.263 
13:30	72.0	72.0	72.0	43	48.3	1	4	270	0.00	30.261 
13:35	72.0	72.0	72.0	45	49.5	1	4	270	0.00	30.261 
13:40	71.8	71.8	71.8	44	48.7	0	2	292	0.00	30.261 
13:45	71.8	71.8	71.8	42	47.5	1	3	292	0.00	30.257 
13:50	72.0	72.0	72.0	42	47.6	1	5	90	0.00	30.257 
13:55	71.8	71.8	71.8	44	48.7	0	2	90	0.00	30.257 
14:00	71.8	71.8	71.8	43	48.1	1	2	112	0.00	30.256 
14:05	71.5	71.5	71.5	44	48.4	0	2	112	0.00	30.256 
14:10	71.3	71.3	71.3	50	51.7	0	2	112	0.00	30.256 
14:15	72.0	72.0	72.0	43	48.3	1	3	112	0.00	30.252 
14:20	72.3	72.3	72.3	41	47.3	0	2	112	0.00	30.252 
14:25	73.0	73.0	73.0	43	49.2	0	2	315	0.00	30.252 
14:30	73.0	73.0	73.0	43	49.2	1	4	22	0.00	30.249 
14:35	72.8	72.8	72.8	42	48.4	1	4	338	0.00	30.249 
14:40	73.0	73.0	73.0	44	49.8	1	3	292	0.00	30.249 
14:45	73.2	73.2	73.2	42	48.7	1	4	112	0.00	30.247 
14:50	72.3	72.3	72.3	40	46.6	0	2	22	0.00	30.247 
14:55	72.1	72.1	72.1	46	50.2	0	1	22	0.00	30.247 
15:00	72.8	72.8	72.8	44	49.6	1	3	292	0.00	30.244 
15:05	73.5	73.5	73.5	42	49.0	1	7	158	0.00	30.244 
15:10	73.7	73.7	73.7	44	50.4	1	7	90	0.00	30.244 
15:15	73.9	73.9	73.9	42	49.3	0	1	90	0.00	30.242 
15:20	74.0	74.0	74.0	44	50.7	0	3	90	0.00	30.242 
15:25	73.9	73.9	73.9	47	52.4	0	2	45	0.00	30.242 
15:30	73.9	73.9	73.9	43	50.0	1	3	338	0.00	30.239 
15:35	74.0	74.0	74.0	44	50.7	0	3	338	0.00	30.239 
15:40	73.9	73.9	73.9	40	48.0	0	3	292	0.00	30.239 
15:45	73.0	73.0	73.0	39	46.6	0	1	292	0.00	30.239 
15:50	73.2	73.2	73.2	43	49.3	0	2	292	0.00	30.239 
15:55	73.2	73.2	73.2	41	48.1	0	2	292	0.00	30.239 
16:00	73.2	73.2	73.2	42	48.7	1	6	68	0.00	30.236 
16:05	73.3	73.3	73.3	43	49.4	1	3	270	0.00	30.236 
16:10	73.9	73.9	73.9	43	50.0	1	4	90	0.00	30.236 
16:15	74.6	74.6	74.6	39	48.0	0	2	90	0.00	30.234 
16:20	74.7	74.7	74.7	39	48.1	1	3	315	0.00	30.234 
16:25	74.6	74.6	74.6	39	48.0	0	3	315	0.00	30.234 
16:30	73.9	73.9	73.9	39	47.4	1	3	315	0.00	30.235 
16:35	73.5	73.5	73.5	41	48.3	1	3	0	0.00	30.235 
16:40	73.3	73.3	73.3	46	51.3	0	1	0	0.00	30.235 
16:45	73.5	73.5	73.5	43	49.6	0	3	338	0.00	30.231 
16:50	73.9	73.9	73.9	39	47.4	1	3	315	0.00	30.231 
16:55	74.0	74.0	74.0	39	47.5	0	3	315	0.00	30.231 
17:00	73.7	73.7	73.7	39	47.2	1	3	270	0.00	30.233 
17:05	73.9	73.9	73.9	45	51.2	0	2	0	0.00	30.233 
17:10	74.2	74.2	74.2	43	50.2	1	3	68	0.00	30.233 
17:15	74.6	74.6	74.6	41	49.3	1	3	112	0.00	30.228 
17:20	74.2	74.2	74.2	42	49.6	0	2	292	0.00	30.228 
17:25	73.3	73.3	73.3	43	49.4	0	1	0	0.00	30.228 
17:30	73.3	73.3	73.3	44	50.1	0	2	22	0.00	30.235 
17:35	72.7	72.7	72.7	46	50.7	0	2	270	0.00	30.235 
17:40	73.0	73.0	73.0	45	50.4	1	4	112	0.00	30.235 
17:45	73.5	73.5	73.5	41	48.3	1	4	90	0.00	30.225 
17:50	73.5	73.5	73.5	40	47.7	1	4	270	0.00	30.225 
17:55	73.5	73.5	73.5	41	48.3	1	2	270	0.00	30.225 
18:00	73.3	73.3	73.3	42	48.8	1	3	270	0.00	30.224 
18:05	73.2	73.2	73.2	41	48.1	1	3	292	0.00	30.224 
18:10	73.0	73.0	73.0	40	47.2	1	3	292	0.00	30.224 
18:15	73.0	73.0	73.0	41	47.9	0	2	292	0.00	30.225 
18:20	73.0	73.0	73.0	44	49.8	1	3	90	0.00	30.225 
18:25	73.0	73.0	73.0	44	49.8	0	2	90	0.00	30.225 
18:30	72.8	72.8	72.8	43	49.0	0	2	90	0.00	30.221 
18:35	72.5	72.5	72.5	43	48.7	0	2	90	0.00	30.221 
18:40	72.5	72.5	72.5	44	49.3	0	2	90	0.00	30.221 
18:45	72.3	72.3	72.3	44	49.2	0	2	90	0.00	30.220 
18:50	72.1	72.1	72.1	41	47.1	0	2	90	0.00	30.220 
18:55	72.0	72.0	72.0	46	50.1	0	2	90	0.00	30.220 
19:00	71.8	71.8	71.8	41	46.8	0	2	90	0.00	30.220 
19:05	72.0	72.0	72.0	43	48.3	0	2	90	0.00	30.220 
19:10	72.0	72.0	72.0	43	48.3	0	3	90	0.00	30.220 
19:15	72.0	72.0	72.0	43	48.3	0	2	90	0.00	30.213 
19:20	71.8	71.8	71.8	45	49.3	0	1	90	0.00	30.213 
19:25	71.8	71.8	71.8	43	48.1	0	3	270	0.00	30.213 
19:30	71.6	71.6	71.6	44	48.5	0	1	270	0.00	30.214 
19:35	71.6	71.6	71.6	43	47.9	0	2	270	0.00	30.214 
19:40	71.6	71.6	71.6	43	47.9	0	1	270	0.00	30.214 
19:45	71.6	71.6	71.6	44	48.5	0	1	270	0.00	30.216 
19:50	71.3	71.3	71.3	46	49.4	0	1	270	0.00	30.216 
19:55	71.3	71.3	71.3	45	48.8	0	1	270	0.00	30.216 
20:00	71.3	71.3	71.3	43	47.6	0	1	270	0.00	30.217 
20:05	71.3	71.3	71.3	46	49.4	0	1	270	0.00	30.217 
20:10	71.3	71.3	71.3	46	49.4	0	0	---	0.00	30.217 
20:15	70.9	70.9	70.9	46	49.1	0	0	---	0.00	30.211 
20:20	70.8	70.8	70.8	47	49.6	0	1	270	0.00	30.211 
20:25	70.4	70.4	70.4	48	49.8	0	1	270	0.00	30.211 
20:30	70.1	70.1	70.1	48	49.5	0	1	270	0.00	30.214 
20:35	69.9	69.9	69.9	49	49.9	0	0	---	0.00	30.214 
20:40	69.6	69.6	69.6	50	50.1	0	0	---	0.00	30.214 
20:45	69.4	69.4	69.4	51	50.5	0	0	---	0.00	30.218 
20:50	69.1	69.1	69.1	51	50.2	0	0	---	0.00	30.218 
20:55	68.9	68.9	68.9	52	50.5	0	0	---	0.00	30.218 
21:00	68.4	68.4	68.4	53	50.6	0	0	---	0.00	30.218 
21:05	68.3	68.3	68.3	53	50.5	0	0	---	0.00	30.218 
21:10	67.8	67.8	67.8	54	50.5	0	0	---	0.00	30.218 
21:15	67.4	67.4	67.4	55	50.7	0	0	---	0.00	30.218 
21:20	67.1	67.1	67.1	55	50.4	0	0	---	0.00	30.218 
21:25	66.9	66.9	66.9	56	50.7	0	0	---	0.00	30.218 
21:30	66.6	66.6	66.6	56	50.4	0	0	---	0.00	30.221 
21:35	66.3	66.3	66.3	57	50.6	0	0	---	0.00	30.221 
21:40	66.1	66.1	66.1	58	50.9	0	0	---	0.00	30.221 
21:45	65.8	65.8	65.8	59	51.1	0	0	---	0.00	30.225 
21:50	65.6	65.6	65.6	60	51.3	0	0	---	0.00	30.225 
21:55	65.3	65.3	65.3	60	51.1	0	0	---	0.00	30.225 
22:00	65.0	65.0	65.0	61	51.2	0	0	---	0.00	30.232 
22:05	64.7	64.7	64.7	62	51.4	0	0	---	0.00	30.232 
22:10	64.5	64.5	64.5	62	51.2	0	0	---	0.00	30.232 
22:15	64.2	64.2	64.2	63	51.3	0	0	---	0.00	30.234 
22:20	64.0	64.0	64.0	64	51.6	0	0	---	0.00	30.234 
22:25	63.7	63.7	63.7	64	51.3	0	0	---	0.00	30.234 
22:30	63.5	63.5	63.5	65	51.5	0	0	---	0.00	30.239 
22:35	63.2	63.2	63.2	66	51.6	0	0	---	0.00	30.239 
22:40	62.9	62.9	62.9	66	51.4	0	0	---	0.00	30.239 
22:45	62.6	62.6	62.6	67	51.5	0	0	---	0.00	30.243 
22:50	62.4	62.4	62.4	69	52.1	0	0	---	0.00	30.243 
22:55	62.1	62.1	62.1	69	51.8	0	0	---	0.00	30.243 
23:00	62.0	62.0	62.0	70	52.1	0	0	---	0.00	30.244 
23:05	61.8	61.8	61.8	71	52.3	0	0	---	0.00	30.244 
23:10	61.5	61.5	61.5	72	52.4	0	0	---	0.00	30.244 
23:15	61.2	61.2	61.2	73	52.5	0	0	---	0.00	30.249 
23:20	61.0	61.0	61.0	72	51.9	0	0	---	0.00	30.249 
23:25	60.9	60.9	60.9	73	52.2	0	0	---	0.00	30.249 
23:30	60.7	60.7	60.7	73	52.0	0	0	---	0.00	30.251 
23:35	60.5	60.5	60.5	73	51.8	0	0	---	0.00	30.251 
23:40	60.4	60.4	60.4	73	51.7	0	0	---	0.00	30.251 
23:45	60.2	60.2	60.2	75	52.2	0	0	---	0.00	30.260 
23:50	60.1	60.1	60.1	76	52.5	0	0	---	0.00	30.260 
23:55	59.9	59.9	59.9	77	52.7	0	0	---	0.00	30.260 

CoCoRaHS
IN-AL-39
A2 Web Hosting
Creative Commons License
GoDaddy
search engine by freefind advanced

loaded 2018-11-19 11:13:18 • last modified 2010-11-18 10:43:29
Privacy PolicyDisclaimer
• wx.awcolley.com is powered by PmWiki v.2002016 •
• all content (unless otherwise noted) © 2018 A W Colley